الصفحة الرئيسية
METAR-TAF:

METAR-TAF

مطار :

سورغوت, روسيا

دائرة عرض: 61-15N, خط طول: 073-30E, ارتفاع: 44 متر

مراقبة الطقس الحالي

تاريخ ووقت الإصدار 42 دقيقة قبل الساعة 21:00UTC
ريح 6 عقدة من الغرب
درجة الحرارة -14°درجة مئوية
الرطوبة 92%
ضغط 1022 hPa
الرؤية: 7000 متر

METAR: USRR 182100Z 26003MPS 7000 NSC M14/M15 Q1022 R25/39//35 NOSIG RMK QFE761

زمن: 02:42 (21:42 UTC)

توقعات

تاريخ ووقت الإصدار 1ساعة و 47 دقيقة قبل الساعة 19:55UTC
التوقعات صالحة من18 الساعة 21 UTC إلى 19 الساعة 21 UTC
ريح 8 عقدة من الغرب/الجنوب الغربي
الرؤية 10 كم أو أكثر
غيوم متفرقة على ارتفاع 1100 قدم
غيوم مفككة على ارتفاع 2000 قدم, مزنة ركامية.
مؤقت
من 18 الساعة 21 UTC إلى 19 الساعة 09 UTC
الرؤية: 2000 متر
غيوم مفككة على ارتفاع 500 قدم
غيوم مفككة على ارتفاع 1500 قدم, مزنة ركامية.
زخات ثلجية
أصبح
من 19 الساعة 05 UTC إلى 19 الساعة 07 UTC
ريح 12 عقدة من الغرب تتزايد حتى 23 عقدة

TAF: USRR 181955Z 1821/1921 25004MPS 9999 SCT011 BKN020CB TEMPO 1821/1909 2000 SHSN BKN005 BKN015CB BECMG 1905/1907 28006G12MPS

أرصاد الطقس والتوقعات من أكثر من 4000 مطار (تقارير الطقس للمطار METAR والتنبؤ بالطقس بالمطارTAF).

المحطات المتاحة هي النقط الصفراء والحمراء على الخريطة.

حرك المؤشر فوق النقطة لمعرفة اسم المحطة.

ثم انقر لمعرفة أرصاد وتوقعات الطقس.

لتغيير الخارطة: اضغط على الأزرار الخضراء مع رمز الصليب الأسود للتكبير. على الزر الأخضر مع شرطة للتصغير، أو على الأسهم الخضراء للخرائط المجاورة.


METAR-TAF: